FMMT

Toamasina Airport

Madagascar
METAR FMMT 172000Z 00000KT 9999 FEW017 23/22 Q1016
Observed Flight Rules
Dec-17 @ 20:00 UTC (an hour ago) Visual Flight Rules
Wind Visibility Clouds
Calm 10,000+ meters
  • Few at 1,700' AGL
Temperatures Readings
Current 23°C / 73°F
Dewpoint 22°C / 72°F
Humidity 94%
Altimeter 30" Hg
Pressure 1016 hPa
Elevation 6
METAR FMMT 172000Z 00000KT 9999 FEW017 23/22 Q1016
Observed Flight Rules
Dec-17 @ 20:00 UTC
(an hour ago)
VFR
Wind Visibility
Calm 10,000+ meters
Clouds
  • Few at 1,700' AGL
Temperature Dewpoint
23°C / 73°F 22°C / 72°F
Humidity Altimeter Pressure
94% 30" Hg 1016 hPa